sensor_id;sensor_type;location;lat;lon;timestamp;P1;durP1;ratioP1;P2;durP2;ratioP2
62435;SDS011;48480;50.252;18.848;2022-07-29T00:01:29;6.60;;;4.00;;
62435;SDS011;48480;50.252;18.848;2022-07-29T00:03:55;7.90;;;3.30;;
62435;SDS011;48480;50.252;18.848;2022-07-29T00:06:22;8.30;;;3.60;;
62435;SDS011;48480;50.252;18.848;2022-07-29T00:08:48;6.50;;;4.40;;
62435;SDS011;48480;50.252;18.848;2022-07-29T00:11:14;7.60;;;3.70;;
62435;SDS011;48480;50.252;18.848;2022-07-29T00:13:41;6.30;;;3.70;;
62435;SDS011;48480;50.252;18.848;2022-07-29T00:16:08;7.80;;;3.60;;
62435;SDS011;48480;50.252;18.848;2022-07-29T00:18:34;7.00;;;3.30;;
62435;SDS011;48480;50.252;18.848;2022-07-29T00:21:01;6.40;;;3.60;;
62435;SDS011;48480;50.252;18.848;2022-07-29T00:23:27;4.80;;;3.50;;
62435;SDS011;48480;50.252;18.848;2022-07-29T00:25:54;7.60;;;3.80;;
62435;SDS011;48480;50.252;18.848;2022-07-29T00:28:20;6.50;;;4.00;;
62435;SDS011;48480;50.252;18.848;2022-07-29T00:30:47;6.30;;;3.40;;
62435;SDS011;48480;50.252;18.848;2022-07-29T00:33:13;5.00;;;3.50;;
62435;SDS011;48480;50.252;18.848;2022-07-29T00:35:40;5.70;;;3.70;;
62435;SDS011;48480;50.252;18.848;2022-07-29T00:38:13;5.90;;;3.30;;
62435;SDS011;48480;50.252;18.848;2022-07-29T00:40:41;6.80;;;3.30;;
62435;SDS011;48480;50.252;18.848;2022-07-29T00:43:08;8.50;;;3.60;;
62435;SDS011;48480;50.252;18.848;2022-07-29T00:45:35;7.10;;;3.10;;
62435;SDS011;48480;50.252;18.848;2022-07-29T00:48:02;4.80;;;2.90;;
62435;SDS011;48480;50.252;18.848;2022-07-29T00:50:31;6.00;;;3.10;;
62435;SDS011;48480;50.252;18.848;2022-07-29T00:52:58;5.80;;;3.10;;
62435;SDS011;48480;50.252;18.848;2022-07-29T00:55:26;6.10;;;2.90;;
62435;SDS011;48480;50.252;18.848;2022-07-29T00:57:53;4.30;;;2.50;;
62435;SDS011;48480;50.252;18.848;2022-07-29T01:00:22;9.30;;;2.70;;
62435;SDS011;48480;50.252;18.848;2022-07-29T01:02:50;6.60;;;3.10;;
62435;SDS011;48480;50.252;18.848;2022-07-29T01:05:18;6.30;;;3.20;;
62435;SDS011;48480;50.252;18.848;2022-07-29T01:07:48;5.50;;;3.20;;
62435;SDS011;48480;50.252;18.848;2022-07-29T01:10:19;6.60;;;3.20;;
62435;SDS011;48480;50.252;18.848;2022-07-29T01:12:47;5.90;;;2.70;;
62435;SDS011;48480;50.252;18.848;2022-07-29T01:15:16;3.60;;;2.50;;
62435;SDS011;48480;50.252;18.848;2022-07-29T01:34:20;5.80;;;2.50;;
62435;SDS011;48480;50.252;18.848;2022-07-29T01:36:55;6.00;;;2.60;;
62435;SDS011;48480;50.252;18.848;2022-07-29T01:39:30;5.40;;;2.50;;
62435;SDS011;48480;50.252;18.848;2022-07-29T01:44:41;4.10;;;2.40;;
62435;SDS011;48480;50.252;18.848;2022-07-29T01:47:15;6.30;;;2.70;;
62435;SDS011;48480;50.252;18.848;2022-07-29T01:49:48;5.40;;;2.40;;
62435;SDS011;48480;50.252;18.848;2022-07-29T01:52:21;5.40;;;2.60;;
62435;SDS011;48480;50.252;18.848;2022-07-29T01:54:55;3.10;;;2.10;;
62435;SDS011;48480;50.252;18.848;2022-07-29T01:57:26;5.00;;;2.20;;
62435;SDS011;48480;50.252;18.848;2022-07-29T01:59:56;2.80;;;2.00;;
62435;SDS011;48480;50.252;18.848;2022-07-29T02:02:24;3.00;;;2.10;;
62435;SDS011;48480;50.252;18.848;2022-07-29T02:04:54;4.50;;;2.10;;
62435;SDS011;48480;50.252;18.848;2022-07-29T02:07:22;6.60;;;2.70;;
62435;SDS011;48480;50.252;18.848;2022-07-29T02:09:53;3.90;;;1.70;;
62435;SDS011;48480;50.252;18.848;2022-07-29T02:12:21;4.00;;;1.90;;
62435;SDS011;48480;50.252;18.848;2022-07-29T02:14:51;5.90;;;2.20;;
62435;SDS011;48480;50.252;18.848;2022-07-29T02:17:23;3.40;;;2.00;;
62435;SDS011;48480;50.252;18.848;2022-07-29T02:19:54;4.30;;;2.30;;
62435;SDS011;48480;50.252;18.848;2022-07-29T02:22:23;3.00;;;1.90;;
62435;SDS011;48480;50.252;18.848;2022-07-29T02:24:50;6.40;;;2.00;;
62435;SDS011;48480;50.252;18.848;2022-07-29T02:27:17;3.40;;;1.90;;
62435;SDS011;48480;50.252;18.848;2022-07-29T02:29:46;3.70;;;1.70;;
62435;SDS011;48480;50.252;18.848;2022-07-29T02:32:15;4.10;;;1.90;;
62435;SDS011;48480;50.252;18.848;2022-07-29T02:34:43;4.80;;;1.80;;
62435;SDS011;48480;50.252;18.848;2022-07-29T02:37:12;3.00;;;1.50;;
62435;SDS011;48480;50.252;18.848;2022-07-29T02:39:40;4.30;;;1.80;;
62435;SDS011;48480;50.252;18.848;2022-07-29T02:42:10;6.30;;;1.80;;
62435;SDS011;48480;50.252;18.848;2022-07-29T02:44:41;3.90;;;1.90;;
62435;SDS011;48480;50.252;18.848;2022-07-29T02:52:49;3.00;;;1.80;;
62435;SDS011;48480;50.252;18.848;2022-07-29T02:55:19;3.10;;;1.50;;
62435;SDS011;48480;50.252;18.848;2022-07-29T03:00:43;3.90;;;1.70;;
62435;SDS011;48480;50.252;18.848;2022-07-29T03:03:13;5.70;;;1.70;;
62435;SDS011;48480;50.252;18.848;2022-07-29T03:05:42;4.50;;;1.40;;
62435;SDS011;48480;50.252;18.848;2022-07-29T03:08:09;3.30;;;1.40;;
62435;SDS011;48480;50.252;18.848;2022-07-29T03:10:42;4.40;;;1.50;;
62435;SDS011;48480;50.252;18.848;2022-07-29T03:13:11;3.70;;;1.60;;
62435;SDS011;48480;50.252;18.848;2022-07-29T03:15:39;2.60;;;1.60;;
62435;SDS011;48480;50.252;18.848;2022-07-29T03:18:05;4.50;;;1.80;;
62435;SDS011;48480;50.252;18.848;2022-07-29T03:20:33;4.50;;;1.90;;
62435;SDS011;48480;50.252;18.848;2022-07-29T03:22:59;3.80;;;1.60;;
62435;SDS011;48480;50.252;18.848;2022-07-29T03:25:26;6.30;;;2.00;;
62435;SDS011;48480;50.252;18.848;2022-07-29T03:27:53;4.40;;;1.90;;
62435;SDS011;48480;50.252;18.848;2022-07-29T03:30:19;3.70;;;1.80;;
62435;SDS011;48480;50.252;18.848;2022-07-29T03:32:46;3.50;;;1.70;;
62435;SDS011;48480;50.252;18.848;2022-07-29T03:35:12;3.60;;;1.60;;
62435;SDS011;48480;50.252;18.848;2022-07-29T03:37:40;6.50;;;1.90;;
62435;SDS011;48480;50.252;18.848;2022-07-29T03:40:07;2.80;;;1.90;;
62435;SDS011;48480;50.252;18.848;2022-07-29T03:42:36;4.10;;;1.70;;
62435;SDS011;48480;50.252;18.848;2022-07-29T03:45:07;3.50;;;1.70;;
62435;SDS011;48480;50.252;18.848;2022-07-29T03:47:37;3.10;;;1.50;;
62435;SDS011;48480;50.252;18.848;2022-07-29T03:50:06;3.00;;;1.70;;
62435;SDS011;48480;50.252;18.848;2022-07-29T03:52:36;4.50;;;1.80;;
62435;SDS011;48480;50.252;18.848;2022-07-29T03:55:03;3.20;;;1.60;;
62435;SDS011;48480;50.252;18.848;2022-07-29T03:57:31;3.20;;;1.80;;
62435;SDS011;48480;50.252;18.848;2022-07-29T03:59:59;5.70;;;2.10;;
62435;SDS011;48480;50.252;18.848;2022-07-29T04:02:31;4.30;;;1.80;;
62435;SDS011;48480;50.252;18.848;2022-07-29T04:04:59;4.10;;;1.60;;
62435;SDS011;48480;50.252;18.848;2022-07-29T04:07:25;3.20;;;1.60;;
62435;SDS011;48480;50.252;18.848;2022-07-29T04:09:52;3.40;;;1.80;;
62435;SDS011;48480;50.252;18.848;2022-07-29T04:12:18;4.00;;;1.60;;
62435;SDS011;48480;50.252;18.848;2022-07-29T04:14:47;3.70;;;1.60;;
62435;SDS011;48480;50.252;18.848;2022-07-29T04:17:14;4.80;;;1.60;;
62435;SDS011;48480;50.252;18.848;2022-07-29T04:19:41;4.10;;;1.70;;
62435;SDS011;48480;50.252;18.848;2022-07-29T04:22:07;3.90;;;1.70;;
62435;SDS011;48480;50.252;18.848;2022-07-29T04:24:34;4.90;;;1.60;;
62435;SDS011;48480;50.252;18.848;2022-07-29T04:27:01;4.10;;;2.30;;
62435;SDS011;48480;50.252;18.848;2022-07-29T04:29:28;4.40;;;1.90;;
62435;SDS011;48480;50.252;18.848;2022-07-29T04:31:55;3.30;;;1.90;;
62435;SDS011;48480;50.252;18.848;2022-07-29T04:34:21;4.80;;;1.70;;
62435;SDS011;48480;50.252;18.848;2022-07-29T04:36:48;5.80;;;2.60;;
62435;SDS011;48480;50.252;18.848;2022-07-29T04:39:14;4.60;;;1.70;;
62435;SDS011;48480;50.252;18.848;2022-07-29T04:41:41;4.80;;;2.30;;
62435;SDS011;48480;50.252;18.848;2022-07-29T04:44:08;5.40;;;2.20;;
62435;SDS011;48480;50.252;18.848;2022-07-29T04:46:34;4.50;;;1.90;;
62435;SDS011;48480;50.252;18.848;2022-07-29T04:49:02;4.90;;;1.90;;
62435;SDS011;48480;50.252;18.848;2022-07-29T04:51:29;4.60;;;2.00;;
62435;SDS011;48480;50.252;18.848;2022-07-29T04:53:56;3.40;;;1.80;;
62435;SDS011;48480;50.252;18.848;2022-07-29T04:56:23;6.70;;;2.00;;
62435;SDS011;48480;50.252;18.848;2022-07-29T04:58:50;4.50;;;2.00;;
62435;SDS011;48480;50.252;18.848;2022-07-29T05:01:17;3.30;;;1.80;;
62435;SDS011;48480;50.252;18.848;2022-07-29T05:03:44;3.60;;;2.00;;
62435;SDS011;48480;50.252;18.848;2022-07-29T05:06:11;4.30;;;1.90;;
62435;SDS011;48480;50.252;18.848;2022-07-29T05:08:38;6.60;;;1.90;;
62435;SDS011;48480;50.252;18.848;2022-07-29T05:11:04;5.20;;;1.80;;
62435;SDS011;48480;50.252;18.848;2022-07-29T05:13:31;3.90;;;1.90;;
62435;SDS011;48480;50.252;18.848;2022-07-29T05:15:58;3.40;;;2.00;;
62435;SDS011;48480;50.252;18.848;2022-07-29T05:18:25;3.40;;;1.80;;
62435;SDS011;48480;50.252;18.848;2022-07-29T05:20:51;2.90;;;1.70;;
62435;SDS011;48480;50.252;18.848;2022-07-29T05:23:18;5.90;;;1.90;;
62435;SDS011;48480;50.252;18.848;2022-07-29T05:25:45;6.10;;;1.90;;
62435;SDS011;48480;50.252;18.848;2022-07-29T05:28:13;4.00;;;2.20;;
62435;SDS011;48480;50.252;18.848;2022-07-29T05:30:40;4.50;;;1.60;;
62435;SDS011;48480;50.252;18.848;2022-07-29T05:33:07;4.60;;;2.20;;
62435;SDS011;48480;50.252;18.848;2022-07-29T05:35:34;3.30;;;1.80;;
62435;SDS011;48480;50.252;18.848;2022-07-29T05:38:03;3.70;;;1.90;;
62435;SDS011;48480;50.252;18.848;2022-07-29T05:40:30;3.20;;;1.70;;
62435;SDS011;48480;50.252;18.848;2022-07-29T05:42:57;3.10;;;1.90;;
62435;SDS011;48480;50.252;18.848;2022-07-29T05:45:23;4.20;;;1.80;;
62435;SDS011;48480;50.252;18.848;2022-07-29T05:47:50;2.90;;;2.30;;
62435;SDS011;48480;50.252;18.848;2022-07-29T05:50:17;3.60;;;2.10;;
62435;SDS011;48480;50.252;18.848;2022-07-29T05:52:46;4.80;;;1.80;;
62435;SDS011;48480;50.252;18.848;2022-07-29T05:55:12;3.70;;;1.90;;
62435;SDS011;48480;50.252;18.848;2022-07-29T05:57:39;5.60;;;1.90;;
62435;SDS011;48480;50.252;18.848;2022-07-29T06:00:06;3.20;;;1.90;;
62435;SDS011;48480;50.252;18.848;2022-07-29T06:02:33;4.70;;;1.80;;
62435;SDS011;48480;50.252;18.848;2022-07-29T06:05:00;2.60;;;1.80;;
62435;SDS011;48480;50.252;18.848;2022-07-29T06:07:27;3.80;;;1.90;;
62435;SDS011;48480;50.252;18.848;2022-07-29T06:09:53;3.40;;;1.70;;
62435;SDS011;48480;50.252;18.848;2022-07-29T06:12:20;3.20;;;1.90;;
62435;SDS011;48480;50.252;18.848;2022-07-29T06:14:47;4.90;;;2.00;;
62435;SDS011;48480;50.252;18.848;2022-07-29T06:17:15;4.70;;;2.00;;
62435;SDS011;48480;50.252;18.848;2022-07-29T06:19:42;4.20;;;2.20;;
62435;SDS011;48480;50.252;18.848;2022-07-29T06:22:08;5.50;;;2.20;;
62435;SDS011;48480;50.252;18.848;2022-07-29T06:24:35;4.30;;;2.10;;
62435;SDS011;48480;50.252;18.848;2022-07-29T06:27:03;5.60;;;1.90;;
62435;SDS011;48480;50.252;18.848;2022-07-29T06:29:29;5.90;;;2.10;;
62435;SDS011;48480;50.252;18.848;2022-07-29T06:31:56;6.50;;;2.20;;
62435;SDS011;48480;50.252;18.848;2022-07-29T06:34:23;7.10;;;2.00;;
62435;SDS011;48480;50.252;18.848;2022-07-29T06:36:50;3.50;;;1.90;;
62435;SDS011;48480;50.252;18.848;2022-07-29T06:39:18;5.80;;;1.90;;
62435;SDS011;48480;50.252;18.848;2022-07-29T06:41:48;5.30;;;2.00;;
62435;SDS011;48480;50.252;18.848;2022-07-29T06:44:17;3.70;;;2.00;;
62435;SDS011;48480;50.252;18.848;2022-07-29T06:46:44;5.70;;;2.20;;
62435;SDS011;48480;50.252;18.848;2022-07-29T06:49:13;5.50;;;2.40;;
62435;SDS011;48480;50.252;18.848;2022-07-29T06:51:40;6.20;;;1.90;;
62435;SDS011;48480;50.252;18.848;2022-07-29T06:54:06;4.50;;;2.10;;
62435;SDS011;48480;50.252;18.848;2022-07-29T06:56:35;4.00;;;2.10;;
62435;SDS011;48480;50.252;18.848;2022-07-29T06:59:04;5.50;;;2.00;;
62435;SDS011;48480;50.252;18.848;2022-07-29T07:01:31;4.60;;;2.20;;
62435;SDS011;48480;50.252;18.848;2022-07-29T07:03:58;6.60;;;1.90;;
62435;SDS011;48480;50.252;18.848;2022-07-29T07:06:25;5.70;;;2.30;;
62435;SDS011;48480;50.252;18.848;2022-07-29T07:08:52;6.20;;;2.10;;
62435;SDS011;48480;50.252;18.848;2022-07-29T07:11:18;4.90;;;2.00;;
62435;SDS011;48480;50.252;18.848;2022-07-29T07:13:45;4.40;;;2.00;;
62435;SDS011;48480;50.252;18.848;2022-07-29T07:16:11;6.20;;;2.20;;
62435;SDS011;48480;50.252;18.848;2022-07-29T07:18:38;3.10;;;2.40;;
62435;SDS011;48480;50.252;18.848;2022-07-29T07:21:07;4.50;;;1.90;;
62435;SDS011;48480;50.252;18.848;2022-07-29T07:23:33;4.50;;;2.40;;
62435;SDS011;48480;50.252;18.848;2022-07-29T07:26:00;7.00;;;2.20;;
62435;SDS011;48480;50.252;18.848;2022-07-29T07:28:27;3.10;;;1.80;;
62435;SDS011;48480;50.252;18.848;2022-07-29T07:30:54;7.90;;;2.10;;
62435;SDS011;48480;50.252;18.848;2022-07-29T07:33:21;4.30;;;2.20;;
62435;SDS011;48480;50.252;18.848;2022-07-29T07:35:48;5.00;;;2.00;;
62435;SDS011;48480;50.252;18.848;2022-07-29T07:38:14;4.50;;;2.00;;
62435;SDS011;48480;50.252;18.848;2022-07-29T07:40:41;6.10;;;2.00;;
62435;SDS011;48480;50.252;18.848;2022-07-29T07:43:08;5.30;;;2.20;;
62435;SDS011;48480;50.252;18.848;2022-07-29T07:45:35;4.20;;;1.90;;
62435;SDS011;48480;50.252;18.848;2022-07-29T07:48:03;5.70;;;2.30;;
62435;SDS011;48480;50.252;18.848;2022-07-29T07:50:30;4.80;;;2.00;;
62435;SDS011;48480;50.252;18.848;2022-07-29T07:52:56;4.80;;;2.20;;
62435;SDS011;48480;50.252;18.848;2022-07-29T07:55:24;3.20;;;2.10;;
62435;SDS011;48480;50.252;18.848;2022-07-29T07:57:52;3.90;;;1.90;;
62435;SDS011;48480;50.252;18.848;2022-07-29T08:00:19;4.20;;;2.30;;
62435;SDS011;48480;50.252;18.848;2022-07-29T08:02:47;4.00;;;2.10;;
62435;SDS011;48480;50.252;18.848;2022-07-29T08:05:13;4.70;;;2.10;;
62435;SDS011;48480;50.252;18.848;2022-07-29T08:07:44;5.60;;;2.30;;
62435;SDS011;48480;50.252;18.848;2022-07-29T08:10:15;4.50;;;2.10;;
62435;SDS011;48480;50.252;18.848;2022-07-29T08:13:07;4.80;;;2.20;;
62435;SDS011;48480;50.252;18.848;2022-07-29T08:15:36;5.00;;;2.10;;
62435;SDS011;48480;50.252;18.848;2022-07-29T08:18:05;4.30;;;2.30;;
62435;SDS011;48480;50.252;18.848;2022-07-29T08:20:34;3.40;;;1.90;;
62435;SDS011;48480;50.252;18.848;2022-07-29T08:23:02;5.30;;;2.60;;
62435;SDS011;48480;50.252;18.848;2022-07-29T08:25:29;5.30;;;2.60;;
62435;SDS011;48480;50.252;18.848;2022-07-29T08:27:55;6.50;;;2.30;;
62435;SDS011;48480;50.252;18.848;2022-07-29T08:32:48;5.90;;;2.50;;
62435;SDS011;48480;50.252;18.848;2022-07-29T08:35:16;4.70;;;2.10;;
62435;SDS011;48480;50.252;18.848;2022-07-29T08:37:43;5.10;;;2.40;;
62435;SDS011;48480;50.252;18.848;2022-07-29T08:40:10;4.70;;;2.40;;
62435;SDS011;48480;50.252;18.848;2022-07-29T08:42:37;4.20;;;2.10;;
62435;SDS011;48480;50.252;18.848;2022-07-29T08:45:13;5.80;;;2.70;;
62435;SDS011;48480;50.252;18.848;2022-07-29T08:47:40;6.00;;;2.30;;
62435;SDS011;48480;50.252;18.848;2022-07-29T08:50:09;5.40;;;2.00;;
62435;SDS011;48480;50.252;18.848;2022-07-29T08:52:39;4.30;;;2.30;;
62435;SDS011;48480;50.252;18.848;2022-07-29T08:57:39;4.40;;;2.40;;
62435;SDS011;48480;50.252;18.848;2022-07-29T09:00:07;3.20;;;2.30;;
62435;SDS011;48480;50.252;18.848;2022-07-29T09:02:39;4.40;;;2.30;;
62435;SDS011;48480;50.252;18.848;2022-07-29T09:05:07;4.60;;;2.40;;
62435;SDS011;48480;50.252;18.848;2022-07-29T09:10:03;3.40;;;2.40;;
62435;SDS011;48480;50.252;18.848;2022-07-29T09:12:30;4.70;;;2.50;;
62435;SDS011;48480;50.252;18.848;2022-07-29T09:20:09;4.70;;;2.80;;
62435;SDS011;48480;50.252;18.848;2022-07-29T09:22:38;7.00;;;2.50;;
62435;SDS011;48480;50.252;18.848;2022-07-29T09:25:05;4.70;;;2.40;;
62435;SDS011;48480;50.252;18.848;2022-07-29T09:27:32;5.00;;;2.30;;
62435;SDS011;48480;50.252;18.848;2022-07-29T09:32:55;6.50;;;2.50;;
62435;SDS011;48480;50.252;18.848;2022-07-29T09:38:12;3.50;;;2.40;;
62435;SDS011;48480;50.252;18.848;2022-07-29T09:40:42;5.90;;;2.80;;
62435;SDS011;48480;50.252;18.848;2022-07-29T09:43:22;4.20;;;2.60;;
62435;SDS011;48480;50.252;18.848;2022-07-29T09:48:17;3.40;;;2.40;;
62435;SDS011;48480;50.252;18.848;2022-07-29T09:50:45;8.70;;;2.90;;
62435;SDS011;48480;50.252;18.848;2022-07-29T09:56:10;3.50;;;2.50;;
62435;SDS011;48480;50.252;18.848;2022-07-29T09:58:36;7.90;;;2.40;;
62435;SDS011;48480;50.252;18.848;2022-07-29T10:01:03;3.60;;;2.80;;
62435;SDS011;48480;50.252;18.848;2022-07-29T10:03:31;3.20;;;2.30;;
62435;SDS011;48480;50.252;18.848;2022-07-29T10:08:36;7.30;;;2.90;;
62435;SDS011;48480;50.252;18.848;2022-07-29T10:13:40;4.60;;;2.50;;
62435;SDS011;48480;50.252;18.848;2022-07-29T10:18:41;3.50;;;2.30;;
62435;SDS011;48480;50.252;18.848;2022-07-29T10:21:09;4.70;;;2.50;;
62435;SDS011;48480;50.252;18.848;2022-07-29T10:23:37;4.10;;;2.40;;
62435;SDS011;48480;50.252;18.848;2022-07-29T10:26:04;5.00;;;2.80;;
62435;SDS011;48480;50.252;18.848;2022-07-29T10:31:05;3.90;;;2.60;;
62435;SDS011;48480;50.252;18.848;2022-07-29T10:33:48;4.50;;;2.50;;
62435;SDS011;48480;50.252;18.848;2022-07-29T10:37:10;4.10;;;2.40;;
62435;SDS011;48480;50.252;18.848;2022-07-29T10:42:21;5.20;;;2.80;;
62435;SDS011;48480;50.252;18.848;2022-07-29T10:47:22;4.50;;;2.70;;
62435;SDS011;48480;50.252;18.848;2022-07-29T10:55:30;4.80;;;3.00;;
62435;SDS011;48480;50.252;18.848;2022-07-29T10:58:16;5.10;;;2.60;;
62435;SDS011;48480;50.252;18.848;2022-07-29T11:00:47;4.20;;;2.50;;
62435;SDS011;48480;50.252;18.848;2022-07-29T11:06:03;4.50;;;2.70;;
62435;SDS011;48480;50.252;18.848;2022-07-29T11:08:32;5.00;;;2.40;;
62435;SDS011;48480;50.252;18.848;2022-07-29T11:13:52;5.00;;;2.60;;
62435;SDS011;48480;50.252;18.848;2022-07-29T11:16:21;4.80;;;2.60;;
62435;SDS011;48480;50.252;18.848;2022-07-29T11:19:18;5.00;;;2.70;;
62435;SDS011;48480;50.252;18.848;2022-07-29T11:21:46;5.00;;;2.50;;
62435;SDS011;48480;50.252;18.848;2022-07-29T11:24:23;6.50;;;2.60;;
62435;SDS011;48480;50.252;18.848;2022-07-29T11:29:50;5.30;;;2.50;;
62435;SDS011;48480;50.252;18.848;2022-07-29T11:32:23;5.10;;;2.60;;
62435;SDS011;48480;50.252;18.848;2022-07-29T11:37:32;4.90;;;2.60;;
62435;SDS011;48480;50.252;18.848;2022-07-29T11:47:41;5.70;;;2.70;;
62435;SDS011;48480;50.252;18.848;2022-07-29T11:50:13;4.70;;;2.20;;
62435;SDS011;48480;50.252;18.848;2022-07-29T11:52:43;4.90;;;2.40;;
62435;SDS011;48480;50.252;18.848;2022-07-29T11:57:52;4.90;;;2.40;;
62435;SDS011;48480;50.252;18.848;2022-07-29T12:00:40;4.00;;;2.60;;
62435;SDS011;48480;50.252;18.848;2022-07-29T12:05:42;6.80;;;2.70;;
62435;SDS011;48480;50.252;18.848;2022-07-29T12:08:14;3.60;;;2.60;;
62435;SDS011;48480;50.252;18.848;2022-07-29T12:10:45;5.40;;;2.80;;
62435;SDS011;48480;50.252;18.848;2022-07-29T12:13:14;6.30;;;3.10;;
62435;SDS011;48480;50.252;18.848;2022-07-29T12:15:53;4.80;;;2.90;;
62435;SDS011;48480;50.252;18.848;2022-07-29T12:18:23;4.30;;;2.30;;
62435;SDS011;48480;50.252;18.848;2022-07-29T12:21:02;5.40;;;2.80;;
62435;SDS011;48480;50.252;18.848;2022-07-29T12:23:40;3.70;;;2.50;;
62435;SDS011;48480;50.252;18.848;2022-07-29T12:31:36;6.50;;;2.70;;
62435;SDS011;48480;50.252;18.848;2022-07-29T12:34:03;5.20;;;2.70;;
62435;SDS011;48480;50.252;18.848;2022-07-29T12:36:33;6.40;;;2.50;;
62435;SDS011;48480;50.252;18.848;2022-07-29T12:39:00;4.50;;;2.40;;
62435;SDS011;48480;50.252;18.848;2022-07-29T12:43:58;4.80;;;2.60;;
62435;SDS011;48480;50.252;18.848;2022-07-29T12:46:25;4.80;;;2.60;;
62435;SDS011;48480;50.252;18.848;2022-07-29T12:48:52;4.80;;;2.30;;
62435;SDS011;48480;50.252;18.848;2022-07-29T12:54:09;5.50;;;3.10;;
62435;SDS011;48480;50.252;18.848;2022-07-29T12:56:43;5.30;;;2.80;;
62435;SDS011;48480;50.252;18.848;2022-07-29T12:59:18;6.00;;;2.50;;
62435;SDS011;48480;50.252;18.848;2022-07-29T13:04:29;4.60;;;2.50;;
62435;SDS011;48480;50.252;18.848;2022-07-29T13:07:00;5.30;;;2.50;;
62435;SDS011;48480;50.252;18.848;2022-07-29T13:12:11;7.90;;;3.10;;
62435;SDS011;48480;50.252;18.848;2022-07-29T13:14:40;6.00;;;3.00;;
62435;SDS011;48480;50.252;18.848;2022-07-29T13:22:23;3.00;;;2.50;;
62435;SDS011;48480;50.252;18.848;2022-07-29T13:24:54;8.30;;;2.60;;
62435;SDS011;48480;50.252;18.848;2022-07-29T13:27:26;5.90;;;2.70;;
62435;SDS011;48480;50.252;18.848;2022-07-29T13:32:26;5.10;;;2.60;;
62435;SDS011;48480;50.252;18.848;2022-07-29T13:35:04;5.90;;;2.60;;
62435;SDS011;48480;50.252;18.848;2022-07-29T13:37:33;4.50;;;2.60;;
62435;SDS011;48480;50.252;18.848;2022-07-29T13:42:34;6.70;;;3.30;;
62435;SDS011;48480;50.252;18.848;2022-07-29T13:45:01;10.30;;;3.10;;
62435;SDS011;48480;50.252;18.848;2022-07-29T13:47:29;8.30;;;2.90;;
62435;SDS011;48480;50.252;18.848;2022-07-29T13:49:57;6.30;;;2.80;;
62435;SDS011;48480;50.252;18.848;2022-07-29T13:52:23;6.70;;;2.60;;
62435;SDS011;48480;50.252;18.848;2022-07-29T13:55:03;7.40;;;2.90;;
62435;SDS011;48480;50.252;18.848;2022-07-29T13:57:30;6.30;;;2.80;;
62435;SDS011;48480;50.252;18.848;2022-07-29T13:59:58;8.00;;;2.80;;
62435;SDS011;48480;50.252;18.848;2022-07-29T14:02:24;6.60;;;2.90;;
62435;SDS011;48480;50.252;18.848;2022-07-29T14:05:05;5.20;;;3.00;;
62435;SDS011;48480;50.252;18.848;2022-07-29T14:07:33;7.00;;;3.20;;
62435;SDS011;48480;50.252;18.848;2022-07-29T14:10:00;5.70;;;2.90;;
62435;SDS011;48480;50.252;18.848;2022-07-29T14:12:27;7.00;;;2.90;;
62435;SDS011;48480;50.252;18.848;2022-07-29T14:14:54;5.50;;;2.80;;
62435;SDS011;48480;50.252;18.848;2022-07-29T14:17:29;6.20;;;2.60;;
62435;SDS011;48480;50.252;18.848;2022-07-29T14:19:56;4.50;;;2.60;;
62435;SDS011;48480;50.252;18.848;2022-07-29T14:22:22;4.50;;;2.80;;
62435;SDS011;48480;50.252;18.848;2022-07-29T14:24:51;7.80;;;3.10;;
62435;SDS011;48480;50.252;18.848;2022-07-29T14:27:18;5.90;;;2.90;;
62435;SDS011;48480;50.252;18.848;2022-07-29T14:29:52;7.10;;;2.90;;
62435;SDS011;48480;50.252;18.848;2022-07-29T14:32:20;5.60;;;2.50;;
62435;SDS011;48480;50.252;18.848;2022-07-29T14:34:47;6.60;;;2.80;;
62435;SDS011;48480;50.252;18.848;2022-07-29T14:37:13;4.70;;;2.90;;
62435;SDS011;48480;50.252;18.848;2022-07-29T14:39:41;7.70;;;2.80;;
62435;SDS011;48480;50.252;18.848;2022-07-29T14:42:13;6.20;;;2.90;;
62435;SDS011;48480;50.252;18.848;2022-07-29T14:44:45;3.60;;;2.40;;
62435;SDS011;48480;50.252;18.848;2022-07-29T14:47:19;4.60;;;2.50;;
62435;SDS011;48480;50.252;18.848;2022-07-29T14:49:45;5.40;;;2.90;;
62435;SDS011;48480;50.252;18.848;2022-07-29T14:52:28;6.10;;;3.00;;
62435;SDS011;48480;50.252;18.848;2022-07-29T14:54:54;4.70;;;2.80;;
62435;SDS011;48480;50.252;18.848;2022-07-29T14:57:21;6.00;;;2.60;;
62435;SDS011;48480;50.252;18.848;2022-07-29T14:59:52;4.20;;;2.70;;
62435;SDS011;48480;50.252;18.848;2022-07-29T15:04:47;4.50;;;2.60;;
62435;SDS011;48480;50.252;18.848;2022-07-29T15:07:14;4.40;;;2.90;;
62435;SDS011;48480;50.252;18.848;2022-07-29T15:09:42;5.90;;;3.10;;
62435;SDS011;48480;50.252;18.848;2022-07-29T15:12:11;5.10;;;2.70;;
62435;SDS011;48480;50.252;18.848;2022-07-29T15:17:11;6.20;;;2.70;;
62435;SDS011;48480;50.252;18.848;2022-07-29T15:19:38;5.60;;;2.50;;
62435;SDS011;48480;50.252;18.848;2022-07-29T15:24:33;5.10;;;2.60;;
62435;SDS011;48480;50.252;18.848;2022-07-29T15:27:00;5.10;;;2.70;;
62435;SDS011;48480;50.252;18.848;2022-07-29T15:29:35;8.80;;;3.00;;
62435;SDS011;48480;50.252;18.848;2022-07-29T15:32:02;7.20;;;2.90;;
62435;SDS011;48480;50.252;18.848;2022-07-29T15:34:29;4.70;;;2.90;;
62435;SDS011;48480;50.252;18.848;2022-07-29T15:36:56;4.90;;;3.10;;
62435;SDS011;48480;50.252;18.848;2022-07-29T15:39:22;3.70;;;2.80;;
62435;SDS011;48480;50.252;18.848;2022-07-29T15:41:56;5.30;;;2.80;;
62435;SDS011;48480;50.252;18.848;2022-07-29T15:44:23;6.90;;;3.00;;
62435;SDS011;48480;50.252;18.848;2022-07-29T15:46:49;8.70;;;2.60;;
62435;SDS011;48480;50.252;18.848;2022-07-29T15:49:29;4.70;;;2.70;;
62435;SDS011;48480;50.252;18.848;2022-07-29T15:52:07;5.20;;;3.00;;
62435;SDS011;48480;50.252;18.848;2022-07-29T15:54:36;7.60;;;3.00;;
62435;SDS011;48480;50.252;18.848;2022-07-29T16:01:54;7.60;;;2.80;;
62435;SDS011;48480;50.252;18.848;2022-07-29T16:04:25;4.90;;;2.80;;
62435;SDS011;48480;50.252;18.848;2022-07-29T16:09:17;6.50;;;3.00;;
62435;SDS011;48480;50.252;18.848;2022-07-29T16:11:44;6.30;;;3.00;;
62435;SDS011;48480;50.252;18.848;2022-07-29T16:14:11;4.40;;;3.00;;
62435;SDS011;48480;50.252;18.848;2022-07-29T16:21:31;6.10;;;2.90;;
62435;SDS011;48480;50.252;18.848;2022-07-29T16:23:58;4.70;;;2.70;;
62435;SDS011;48480;50.252;18.848;2022-07-29T16:28:51;4.60;;;2.90;;
62435;SDS011;48480;50.252;18.848;2022-07-29T16:31:18;4.10;;;2.80;;
62435;SDS011;48480;50.252;18.848;2022-07-29T16:36:18;5.40;;;4.20;;
62435;SDS011;48480;50.252;18.848;2022-07-29T16:38:46;6.10;;;3.10;;
62435;SDS011;48480;50.252;18.848;2022-07-29T16:41:12;6.20;;;3.20;;
62435;SDS011;48480;50.252;18.848;2022-07-29T16:46:13;5.30;;;3.50;;
62435;SDS011;48480;50.252;18.848;2022-07-29T16:53:30;5.10;;;3.30;;
62435;SDS011;48480;50.252;18.848;2022-07-29T16:55:57;9.60;;;4.80;;
62435;SDS011;48480;50.252;18.848;2022-07-29T17:00:55;6.40;;;3.20;;
62435;SDS011;48480;50.252;18.848;2022-07-29T17:03:22;7.40;;;3.70;;
62435;SDS011;48480;50.252;18.848;2022-07-29T17:05:49;5.70;;;3.30;;
62435;SDS011;48480;50.252;18.848;2022-07-29T17:08:15;3.50;;;3.20;;
62435;SDS011;48480;50.252;18.848;2022-07-29T17:10:42;5.90;;;3.70;;
62435;SDS011;48480;50.252;18.848;2022-07-29T17:13:17;5.90;;;3.30;;
62435;SDS011;48480;50.252;18.848;2022-07-29T17:18:10;6.60;;;3.80;;
62435;SDS011;48480;50.252;18.848;2022-07-29T17:20:36;5.50;;;3.10;;
62435;SDS011;48480;50.252;18.848;2022-07-29T17:23:03;6.00;;;3.90;;